Time;durP1;ratioP1;P1;durP2;ratioP2;P2;SDS_P1;SDS_P2;PMS_P1;PMS_P2;Temp;Humidity;BMP_temperature;BMP_pressure;BME280_temperature;BME280_humidity;BME280_pressure;Samples;Min_cycle;Max_cycle;Signal;HPM_P1;HPM_P2
2023/11/29 00:01:45;;;;;;;13.57;7.00;;;;;;;0.13;100.00;99872.03;6276753;28;20056;-75
2023/11/29 00:04:46;;;;;;;13.68;5.82;;;;;;;0.13;100.00;99872.03;6276801;28;20049;-75
2023/11/29 00:07:48;;;;;;;14.55;6.35;;;;;;;0.13;100.00;99874.63;6276404;28;20062;-75
2023/11/29 00:10:49;;;;;;;14.20;6.55;;;;;;;0.17;100.00;99872.81;6278052;28;20045;-75
2023/11/29 00:13:52;;;;;;;15.35;7.20;;;;;;;0.16;100.00;99868.53;6271201;28;20049;-75
2023/11/29 00:16:53;;;;;;;15.10;6.50;;;;;;;0.20;100.00;99873.59;6276836;28;20044;-75
2023/11/29 00:19:55;;;;;;;15.27;6.78;;;;;;;0.19;100.00;99850.38;6281908;28;20052;-75
2023/11/29 00:22:57;;;;;;;15.40;6.30;;;;;;;0.21;100.00;99849.44;6265747;28;20048;-75
2023/11/29 00:25:58;;;;;;;19.08;6.60;;;;;;;0.15;100.00;99839.28;6276631;28;20437;-75
2023/11/29 00:29:01;;;;;;;13.85;6.03;;;;;;;0.22;100.00;99858.88;6275996;28;20460;-75
2023/11/29 00:32:03;;;;;;;14.27;6.40;;;;;;;0.26;100.00;99836.41;6276242;28;20053;-74
2023/11/29 00:35:05;;;;;;;17.80;7.05;;;;;;;0.27;100.00;99843.25;6283088;28;20041;-75
2023/11/29 00:38:07;;;;;;;16.15;6.90;;;;;;;0.29;100.00;99841.50;6267762;28;20071;-74
2023/11/29 00:41:08;;;;;;;13.30;6.95;;;;;;;0.33;100.00;99831.94;6276062;28;20059;-74
2023/11/29 00:44:11;;;;;;;19.63;7.53;;;;;;;0.26;100.00;99818.31;6275886;28;20045;-74
2023/11/29 00:47:12;;;;;;;15.32;7.00;;;;;;;0.36;100.00;99827.53;6275934;28;20457;-74
2023/11/29 00:50:13;;;;;;;16.77;8.30;;;;;;;0.29;100.00;99815.66;6275612;28;20049;-74
2023/11/29 00:53:15;;;;;;;24.13;8.15;;;;;;;0.35;100.00;99812.91;6275469;28;20052;-74
2023/11/29 00:56:16;;;;;;;16.38;7.13;;;;;;;0.31;100.00;99819.03;6275896;28;20059;-73
2023/11/29 00:59:19;;;;;;;17.85;7.75;;;;;;;0.38;100.00;99820.59;6275592;28;20052;-73
2023/11/29 01:02:20;;;;;;;17.95;8.07;;;;;;;0.35;100.00;99807.75;6275625;28;20053;-74
2023/11/29 01:05:22;;;;;;;19.50;7.85;;;;;;;0.33;100.00;99806.09;6275391;28;20059;-74
2023/11/29 01:08:25;;;;;;;15.95;6.15;;;;;;;0.29;100.00;99805.34;6275097;28;20052;-73
2023/11/29 01:11:26;;;;;;;15.52;7.20;;;;;;;0.29;100.00;99810.50;6275328;28;20437;-73
2023/11/29 01:14:29;;;;;;;16.35;8.10;;;;;;;0.31;100.00;99807.88;6275387;28;20076;-74
2023/11/29 01:17:30;;;;;;;15.80;7.15;;;;;;;0.38;100.00;99812.00;6275569;28;20055;-74
2023/11/29 01:20:32;;;;;;;15.55;8.00;;;;;;;0.37;100.00;99823.22;6274977;28;20052;-74
2023/11/29 01:23:33;;;;;;;20.63;8.23;;;;;;;0.41;100.00;99829.97;6275237;28;20052;-75
2023/11/29 01:26:35;;;;;;;16.10;7.63;;;;;;;0.40;100.00;99833.47;6275159;28;20053;-75
2023/11/29 01:29:37;;;;;;;12.13;6.40;;;;;;;0.38;100.00;99828.34;6274953;28;20052;-74
2023/11/29 01:32:39;;;;;;;14.55;6.82;;;;;;;0.39;100.00;99824.03;6274917;28;20060;-74
2023/11/29 01:35:40;;;;;;;15.88;6.93;;;;;;;0.44;100.00;99827.31;6275029;28;20053;-75
2023/11/29 01:38:41;;;;;;;16.48;7.18;;;;;;;0.41;100.00;99827.41;6274858;28;20052;-75
2023/11/29 01:41:43;;;;;;;16.60;6.32;;;;;;;0.44;100.00;99822.16;6274887;28;20060;-75
2023/11/29 01:44:46;;;;;;;14.18;6.20;;;;;;;0.44;100.00;99815.25;6275018;28;20288;-75
2023/11/29 01:47:48;;;;;;;13.38;6.25;;;;;;;0.41;100.00;99815.34;6278175;28;20142;-75
2023/11/29 01:50:52;;;;;;;15.70;6.10;;;;;;;0.42;100.00;99813.63;6279996;28;20437;-76
2023/11/29 01:53:54;;;;;;;12.98;5.88;;;;;;;0.45;100.00;99804.00;6279711;28;20338;-76
2023/11/29 01:56:55;;;;;;;15.50;5.93;;;;;;;0.54;100.00;99802.06;6279959;28;20056;-75
2023/11/29 01:59:58;;;;;;;14.05;6.05;;;;;;;0.43;100.00;99798.06;6279761;28;20049;-75
2023/11/29 02:03:00;;;;;;;13.73;6.65;;;;;;;0.46;100.00;99797.97;6279670;28;20060;-76
2023/11/29 02:06:01;;;;;;;14.32;5.93;;;;;;;0.43;100.00;99798.06;6279469;28;20049;-75
2023/11/29 02:09:03;;;;;;;14.93;6.47;;;;;;;0.40;100.00;99795.53;6279362;28;20115;-75
2023/11/29 02:12:07;;;;;;;14.30;6.25;;;;;;;0.39;100.00;99798.19;6284867;28;20052;-76
2023/11/29 02:15:11;;;;;;;12.30;6.05;;;;;;;0.45;100.00;99798.00;6270829;28;20051;-76
2023/11/29 02:18:13;;;;;;;17.83;6.22;;;;;;;0.43;100.00;99799.78;6279351;28;20053;-76
2023/11/29 02:21:15;;;;;;;13.35;6.82;;;;;;;0.48;100.00;99792.75;6279419;28;20077;-76
2023/11/29 02:24:20;;;;;;;17.58;6.95;;;;;;;0.45;100.00;99793.69;6262607;28;20049;-75
2023/11/29 02:27:23;;;;;;;13.98;5.88;;;;;;;0.50;100.00;99797.00;6254394;28;20049;-76
2023/11/29 02:30:24;;;;;;;16.70;6.75;;;;;;;0.53;100.00;99785.72;6254249;28;20052;-78
2023/11/29 02:33:26;;;;;;;13.60;5.82;;;;;;;0.49;100.00;99772.03;6253928;28;20049;-78
2023/11/29 02:36:27;;;;;;;16.88;6.70;;;;;;;0.51;100.00;99774.59;6253894;28;20599;-77
2023/11/29 02:39:29;;;;;;;13.15;6.68;;;;;;;0.49;100.00;99766.00;6254127;28;20327;-78
2023/11/29 02:42:31;;;;;;;11.85;6.28;;;;;;;0.50;100.00;99765.16;6253766;28;20061;-77
2023/11/29 02:45:33;;;;;;;12.85;5.72;;;;;;;0.56;100.00;99761.53;6253753;28;20056;-78
2023/11/29 02:48:34;;;;;;;14.52;6.85;;;;;;;0.57;100.00;99752.88;6253835;28;20041;-78
2023/11/29 02:51:36;;;;;;;14.90;7.28;;;;;;;0.58;100.00;99749.41;6258800;28;20052;-77
2023/11/29 02:54:37;;;;;;;13.20;6.30;;;;;;;0.60;100.00;99740.72;6269917;28;20052;-78
2023/11/29 02:57:40;;;;;;;12.30;6.63;;;;;;;0.62;100.00;99732.91;6278062;28;20044;-78
2023/11/29 03:00:42;;;;;;;14.73;6.63;;;;;;;0.62;100.00;99732.91;6277845;28;20045;-78
2023/11/29 03:03:43;;;;;;;16.35;7.60;;;;;;;0.56;100.00;99722.75;6278236;28;20056;-78
2023/11/29 03:06:45;;;;;;;17.75;7.07;;;;;;;0.59;100.00;99723.53;6277939;28;20060;-78
2023/11/29 03:09:46;;;;;;;12.35;6.65;;;;;;;0.53;100.00;99722.84;6278222;28;20049;-79
2023/11/29 03:12:49;;;;;;;19.33;8.05;;;;;;;0.60;100.00;99714.88;6277718;28;20446;-79
2023/11/29 03:15:50;;;;;;;15.48;6.07;;;;;;;0.65;100.00;99709.56;6277872;28;20457;-79
2023/11/29 03:18:52;;;;;;;17.75;7.53;;;;;;;0.64;100.00;99702.72;6277027;28;20358;-78
2023/11/29 03:21:53;;;;;;;14.30;7.35;;;;;;;0.67;100.00;99694.84;6277930;28;20068;-78
2023/11/29 03:24:55;;;;;;;18.88;7.35;;;;;;;0.70;100.00;99692.19;6277833;28;20050;-78
2023/11/29 03:27:58;;;;;;;15.45;7.63;;;;;;;0.72;100.00;99682.63;6277839;28;20052;-78
2023/11/29 03:31:00;;;;;;;13.35;7.05;;;;;;;0.78;100.00;99686.78;6277585;28;20053;-78
2023/11/29 03:34:01;;;;;;;18.98;7.28;;;;;;;0.79;100.00;99683.31;6277337;28;20045;-78
2023/11/29 03:37:03;;;;;;;14.43;7.30;;;;;;;0.82;100.00;99678.88;6277375;28;20055;-78
2023/11/29 03:40:05;;;;;;;16.15;8.05;;;;;;;0.83;100.00;99664.22;6277408;28;20059;-78
2023/11/29 03:43:08;;;;;;;18.65;7.63;;;;;;;0.73;100.00;99664.50;6277404;28;20053;-78
2023/11/29 03:46:09;;;;;;;15.27;7.07;;;;;;;0.79;100.00;99662.63;6277071;28;20045;-78
2023/11/29 03:49:11;;;;;;;16.80;8.10;;;;;;;0.79;100.00;99653.13;6277225;28;20044;-78
2023/11/29 03:52:12;;;;;;;15.30;7.75;;;;;;;0.82;100.00;99652.16;6277084;28;20052;-78
2023/11/29 03:55:14;;;;;;;12.85;7.65;;;;;;;0.81;100.00;99640.97;6276839;28;20049;-78
2023/11/29 03:58:17;;;;;;;16.20;8.32;;;;;;;0.84;100.00;99638.28;6276859;28;20335;-78
2023/11/29 04:01:18;;;;;;;19.00;7.70;;;;;;;0.84;100.00;99625.38;6277220;28;20057;-78
2023/11/29 04:04:19;;;;;;;16.25;8.18;;;;;;;0.86;100.00;99618.38;6276723;28;20045;-78
2023/11/29 04:07:21;;;;;;;17.10;7.28;;;;;;;0.87;100.00;99608.91;6276208;28;20049;-78
2023/11/29 04:10:22;;;;;;;14.73;7.78;;;;;;;0.92;100.00;99601.84;6276553;28;20056;-78
2023/11/29 04:13:25;;;;;;;20.73;8.05;;;;;;;0.96;100.00;99603.44;6273175;28;20050;-78
2023/11/29 04:16:28;;;;;;;12.77;6.78;;;;;;;0.99;100.00;99598.16;6270612;28;20438;-79
2023/11/29 04:19:29;;;;;;;13.05;6.20;;;;;;;1.03;100.00;99592.00;6276400;28;20449;-78
2023/11/29 04:22:31;;;;;;;15.15;7.60;;;;;;;0.97;100.00;99590.47;6276589;28;20048;-77
2023/11/29 04:25:32;;;;;;;16.10;6.88;;;;;;;0.97;100.00;99585.28;6276336;28;20060;-78
2023/11/29 04:28:35;;;;;;;13.43;6.85;;;;;;;0.99;100.00;99577.47;6276095;28;20041;-79
2023/11/29 04:31:38;;;;;;;15.32;6.70;;;;;;;0.91;100.00;99564.81;6276143;28;20052;-78
2023/11/29 04:34:39;;;;;;;17.08;7.32;;;;;;;0.76;100.00;99558.38;6275946;28;20075;-79
2023/11/29 04:37:40;;;;;;;13.65;6.82;;;;;;;0.79;100.00;99559.19;6275889;28;20056;-79
2023/11/29 04:40:42;;;;;;;12.30;6.40;;;;;;;0.71;100.00;99552.50;6275741;28;20060;-79
2023/11/29 04:43:45;;;;;;;14.77;5.93;;;;;;;0.71;100.00;99560.25;6275896;28;20053;-80
2023/11/29 04:46:47;;;;;;;11.27;6.55;;;;;;;0.73;100.00;99544.72;6275801;28;20071;-79
2023/11/29 04:49:48;;;;;;;9.65;6.03;;;;;;;0.66;100.00;99541.47;6275407;28;20523;-80
2023/11/29 04:52:50;;;;;;;11.55;6.20;;;;;;;0.68;100.00;99542.28;6275450;28;20045;-79
2023/11/29 04:55:52;;;;;;;20.85;6.43;;;;;;;0.65;100.00;99536.38;6268898;28;20049;-79
2023/11/29 04:58:56;;;;;;;14.48;6.38;;;;;;;0.57;100.00;99528.84;6278098;28;20049;-79
2023/11/29 05:01:57;;;;;;;13.65;6.00;;;;;;;0.62;100.00;99526.94;6262299;28;20049;-80
2023/11/29 05:04:59;;;;;;;13.43;6.18;;;;;;;0.58;100.00;99530.53;6262166;28;20108;-80
2023/11/29 05:08:00;;;;;;;13.15;5.63;;;;;;;0.62;100.00;99526.94;6263436;28;20349;-79
2023/11/29 05:11:04;;;;;;;10.65;5.95;;;;;;;0.60;100.00;99525.31;6263152;28;20052;-78
2023/11/29 05:14:06;;;;;;;13.25;6.40;;;;;;;0.72;100.00;99524.91;6263590;28;20444;-79
2023/11/29 05:17:08;;;;;;;11.98;6.75;;;;;;;0.70;100.00;99522.38;6272066;28;20053;-79
2023/11/29 05:20:11;;;;;;;14.40;7.00;;;;;;;0.65;100.00;99518.25;6261311;28;20049;-79
2023/11/29 05:23:12;;;;;;;11.23;6.35;;;;;;;0.60;100.00;99515.81;6262879;28;20101;-79
2023/11/29 05:26:14;;;;;;;15.05;6.30;;;;;;;0.63;100.00;99515.72;6261638;28;20058;-79
2023/11/29 05:29:17;;;;;;;17.42;7.47;;;;;;;0.60;100.00;99523.59;6262490;28;20045;-80
2023/11/29 05:32:18;;;;;;;16.10;7.10;;;;;;;0.64;100.00;99507.09;6262120;28;20457;-79
2023/11/29 05:35:19;;;;;;;14.13;6.45;;;;;;;0.66;100.00;99512.19;6262087;28;20053;-79
2023/11/29 05:38:21;;;;;;;14.20;6.85;;;;;;;0.61;100.00;99516.66;6262154;28;20052;-79
2023/11/29 05:41:22;;;;;;;17.98;7.28;;;;;;;0.65;100.00;99513.94;6261809;28;20052;-80
2023/11/29 05:44:25;;;;;;;20.00;7.72;;;;;;;0.63;100.00;99504.53;6262381;28;20052;-79
2023/11/29 05:47:26;;;;;;;17.27;8.13;;;;;;;0.65;100.00;99500.16;6260997;28;20056;-79
2023/11/29 05:50:28;;;;;;;16.25;8.27;;;;;;;0.72;100.00;99506.81;6263056;28;20049;-79
2023/11/29 05:53:29;;;;;;;12.93;6.35;;;;;;;0.72;100.00;99504.22;6260634;28;20138;-76
2023/11/29 05:56:31;;;;;;;13.23;7.25;;;;;;;0.82;100.00;99503.03;6260627;28;20053;-76
2023/11/29 05:59:33;;;;;;;16.70;8.25;;;;;;;0.84;100.00;99500.41;6263140;28;20442;-76
2023/11/29 06:02:35;;;;;;;15.20;7.60;;;;;;;0.81;100.00;99505.66;6260999;28;20064;-75
2023/11/29 06:05:37;;;;;;;18.27;8.15;;;;;;;0.81;100.00;99503.91;6262724;28;20052;-75
2023/11/29 06:08:39;;;;;;;21.50;8.43;;;;;;;0.88;100.00;99494.22;6262612;28;20505;-75
2023/11/29 06:11:41;;;;;;;15.75;8.07;;;;;;;0.90;100.00;99495.84;6271586;28;20059;-75
2023/11/29 06:14:45;;;;;;;16.67;7.85;;;;;;;0.88;100.00;99496.81;6265446;28;20056;-75
2023/11/29 06:17:47;;;;;;;20.50;8.60;;;;;;;0.91;100.00;99496.69;6265890;28;20052;-78
2023/11/29 06:20:49;;;;;;;19.33;8.40;;;;;;;0.94;100.00;99494.84;6255606;28;20056;-78
2023/11/29 06:23:50;;;;;;;19.63;9.30;;;;;;;0.94;100.00;99494.00;6255387;28;20358;-78
2023/11/29 06:26:52;;;;;;;15.57;8.55;;;;;;;0.98;100.00;99487.84;6266266;28;20048;-78
2023/11/29 06:29:55;;;;;;;22.63;9.32;;;;;;;0.96;100.00;99493.06;6274139;28;20044;-78
2023/11/29 06:32:57;;;;;;;18.15;8.13;;;;;;;0.92;100.00;99491.50;6274744;28;20433;-78
2023/11/29 06:35:59;;;;;;;17.38;9.30;;;;;;;0.90;100.00;99495.00;6278819;28;20052;-78
2023/11/29 06:39:01;;;;;;;18.83;9.15;;;;;;;1.00;100.00;99488.66;6278732;28;20045;-77
2023/11/29 06:42:02;;;;;;;18.13;8.38;;;;;;;1.03;100.00;99488.53;6278900;28;20056;-78
2023/11/29 06:45:06;;;;;;;15.65;7.65;;;;;;;1.01;100.00;99492.91;6278645;28;20056;-78
2023/11/29 06:48:07;;;;;;;17.40;8.68;;;;;;;1.05;100.00;99491.91;6256905;28;20065;-77
2023/11/29 06:51:09;;;;;;;16.80;8.73;;;;;;;1.01;100.00;99490.31;6253818;28;20641;-78
2023/11/29 06:54:10;;;;;;;20.08;7.95;;;;;;;0.95;100.00;99487.94;6253775;28;20046;-77
2023/11/29 06:57:11;;;;;;;15.30;7.40;;;;;;;0.98;100.00;99491.25;6267409;28;20057;-77
2023/11/29 07:00:16;;;;;;;21.48;9.02;;;;;;;1.04;100.00;99494.53;6276895;28;20060;-77
2023/11/29 07:03:17;;;;;;;17.05;7.28;;;;;;;1.03;100.00;99488.53;6278189;28;20141;-77
2023/11/29 07:06:22;;;;;;;16.08;7.10;;;;;;;1.06;100.00;99490.16;6277926;28;20049;-77
2023/11/29 07:09:24;;;;;;;17.23;8.23;;;;;;;1.05;100.00;99497.09;6278109;28;20045;-77
2023/11/29 07:12:26;;;;;;;19.67;8.70;;;;;;;1.06;100.00;99491.00;6277980;28;20060;-77
2023/11/29 07:15:29;;;;;;;17.15;7.70;;;;;;;1.12;100.00;99497.72;6278023;28;20150;-77
2023/11/29 07:18:30;;;;;;;16.55;6.88;;;;;;;1.10;100.00;99499.50;6277790;28;20045;-77
2023/11/29 07:21:31;;;;;;;17.10;7.57;;;;;;;1.12;100.00;99495.13;6278101;28;20049;-77
2023/11/29 07:24:33;;;;;;;14.98;8.02;;;;;;;1.16;100.00;99494.97;6277695;28;20045;-77
2023/11/29 07:27:34;;;;;;;13.48;7.07;;;;;;;1.18;100.00;99498.34;6277844;28;20059;-77
2023/11/29 07:30:37;;;;;;;15.50;8.13;;;;;;;1.15;100.00;99487.25;6277439;28;20052;-77
2023/11/29 07:33:38;;;;;;;13.07;7.68;;;;;;;1.21;100.00;99492.22;6277696;28;20143;-77
2023/11/29 07:36:43;;;;;;;25.98;8.63;;;;;;;1.18;100.00;99481.97;6277423;28;20147;-77
2023/11/29 07:39:45;;;;;;;19.00;8.10;;;;;;;1.19;100.00;99481.91;6278885;28;20041;-78
2023/11/29 07:42:46;;;;;;;17.88;8.07;;;;;;;1.15;100.00;99485.50;6274002;28;20056;-78
2023/11/29 07:45:49;;;;;;;17.40;8.07;;;;;;;1.22;100.00;99484.38;6276808;28;20056;-77
2023/11/29 07:48:50;;;;;;;13.85;7.25;;;;;;;1.21;100.00;99477.53;6277173;28;20372;-75
2023/11/29 07:51:51;;;;;;;19.55;8.32;;;;;;;1.16;100.00;99473.41;6277008;28;20060;-75
2023/11/29 07:54:53;;;;;;;14.02;8.15;;;;;;;1.23;100.00;99478.34;6277037;28;20060;-75
2023/11/29 07:57:54;;;;;;;13.45;7.60;;;;;;;1.27;100.00;99479.03;6275522;28;20048;-77
2023/11/29 08:00:57;;;;;;;14.27;7.28;;;;;;;1.24;100.00;99480.00;6272993;28;20040;-77
2023/11/29 08:03:58;;;;;;;14.57;7.47;;;;;;;1.28;100.00;99473.00;6269037;28;20491;-75
2023/11/29 08:07:00;;;;;;;15.88;7.63;;;;;;;1.26;100.00;99470.44;6264759;28;20396;-76
2023/11/29 08:10:02;;;;;;;13.38;8.20;;;;;;;1.30;100.00;99473.75;6274512;28;20057;-75
2023/11/29 08:13:04;;;;;;;17.60;9.50;;;;;;;1.48;100.00;99465.31;6274626;28;20055;-76
2023/11/29 08:16:07;;;;;;;15.48;8.00;;;;;;;1.59;100.00;99467.53;6266400;28;20064;-77
2023/11/29 08:19:09;;;;;;;15.73;8.05;;;;;;;1.51;100.00;99472.16;6266534;28;20042;-77
2023/11/29 08:22:11;;;;;;;16.90;7.72;;;;;;;1.30;100.00;99470.34;6269955;28;20392;-78
2023/11/29 08:25:13;;;;;;;13.32;7.65;;;;;;;1.23;100.00;99473.16;6267609;28;20041;-77
2023/11/29 08:28:15;;;;;;;14.38;7.25;;;;;;;1.20;100.00;99470.66;6268113;28;20045;-77
2023/11/29 08:31:18;;;;;;;13.85;6.95;;;;;;;1.06;100.00;99462.56;6291739;22;20042;-71
2023/11/29 08:34:19;;;;;;;15.75;8.02;;;;;;;1.13;100.00;99473.50;6268188;28;20060;-71
2023/11/29 08:37:21;;;;;;;15.45;6.97;;;;;;;1.10;100.00;99468.47;6267286;28;20055;-71
2023/11/29 08:40:22;;;;;;;17.20;8.65;;;;;;;1.16;100.00;99468.25;6275730;28;20049;-71
2023/11/29 08:43:24;;;;;;;13.88;6.65;;;;;;;1.09;100.00;99464.16;6275494;28;20056;-70
2023/11/29 08:46:27;;;;;;;15.65;7.35;;;;;;;1.06;100.00;99462.56;6267801;28;20076;-70
2023/11/29 08:49:28;;;;;;;14.13;7.35;;;;;;;1.07;100.00;99458.22;6275466;28;20349;-69
2023/11/29 08:52:31;;;;;;;18.25;8.48;;;;;;;1.10;100.00;99458.13;6273685;28;20049;-70
2023/11/29 08:55:33;;;;;;;14.82;7.97;;;;;;;1.15;100.00;99457.06;6266060;28;20072;-71
2023/11/29 08:58:35;;;;;;;17.92;7.78;;;;;;;1.16;100.00;99450.13;6266675;28;20064;-69
2023/11/29 09:01:38;;;;;;;12.90;7.60;;;;;;;1.13;100.00;99455.41;6275467;28;20057;-70
2023/11/29 09:04:40;;;;;;;15.10;6.93;;;;;;;1.15;100.00;99446.69;6266812;28;20044;-72
2023/11/29 09:07:41;;;;;;;19.52;8.50;;;;;;;1.16;100.00;99447.53;6272700;28;20056;-70
2023/11/29 09:10:42;;;;;;;16.25;8.60;;;;;;;1.06;100.00;99443.59;6269145;28;20053;-70
2023/11/29 09:13:48;;;;;;;13.80;7.63;;;;;;;1.07;100.00;99447.88;6274959;28;20045;-70
2023/11/29 09:16:52;;;;;;;17.23;8.55;;;;;;;1.05;100.00;99447.09;6273804;28;20045;-70
2023/11/29 09:19:54;;;;;;;16.90;8.48;;;;;;;1.04;100.00;99455.72;6266532;28;20044;-70
2023/11/29 09:22:56;;;;;;;17.90;8.45;;;;;;;0.99;100.00;99448.13;6272602;28;20052;-71
2023/11/29 09:25:57;;;;;;;19.58;8.32;;;;;;;0.97;100.00;99445.63;6268601;28;20048;-71
2023/11/29 09:28:59;;;;;;;16.90;8.25;;;;;;;1.04;100.00;99447.97;6271687;28;20053;-71
2023/11/29 09:32:04;;;;;;;15.25;7.65;;;;;;;1.12;100.00;99451.97;6275050;28;20334;-71
2023/11/29 09:35:06;;;;;;;14.38;8.02;;;;;;;1.19;100.00;99447.44;6268608;28;20430;-70
2023/11/29 09:38:07;;;;;;;16.17;8.23;;;;;;;1.22;100.00;99442.13;6266262;28;20057;-71
2023/11/29 09:41:09;;;;;;;16.30;7.85;;;;;;;1.31;100.00;99444.41;6272510;28;20357;-71
2023/11/29 09:44:11;;;;;;;16.88;8.18;;;;;;;1.31;100.00;99431.44;6267312;28;20446;-70
2023/11/29 09:47:15;;;;;;;17.75;8.90;;;;;;;1.36;100.00;99436.47;6264873;28;20446;-71
2023/11/29 09:50:18;;;;;;;15.30;8.15;;;;;;;1.36;100.00;99436.47;6265012;28;20064;-70
2023/11/29 09:53:19;;;;;;;13.77;7.72;;;;;;;1.32;100.00;99440.06;6274693;28;20064;-71
2023/11/29 09:56:21;;;;;;;19.27;8.20;;;;;;;1.43;100.00;99435.34;6274678;28;20056;-70
2023/11/29 09:59:23;;;;;;;21.40;8.75;;;;;;;1.46;100.00;99443.00;6274781;28;20053;-70
2023/11/29 10:02:26;;;;;;;18.25;8.65;;;;;;;1.45;100.00;99447.34;6274678;28;20135;-70
2023/11/29 10:05:27;;;;;;;16.15;8.30;;;;;;;1.37;100.00;99441.59;6274348;28;20342;-70
2023/11/29 10:08:29;;;;;;;19.35;8.57;;;;;;;1.29;100.00;99435.00;6259564;28;20133;-70
2023/11/29 10:11:30;;;;;;;20.95;8.13;;;;;;;1.38;100.00;99438.09;6260723;28;20053;-70
2023/11/29 10:14:32;;;;;;;22.67;8.38;;;;;;;1.43;100.00;99435.34;6269070;28;20041;-70
2023/11/29 10:17:34;;;;;;;14.98;7.85;;;;;;;1.30;100.00;99432.34;6270600;28;20335;-69
2023/11/29 10:20:36;;;;;;;15.93;7.53;;;;;;;1.43;100.00;99428.41;6266321;28;20060;-69
2023/11/29 10:23:39;;;;;;;16.73;8.40;;;;;;;1.43;100.00;99428.41;6264672;28;20453;-69
2023/11/29 10:26:40;;;;;;;16.52;8.23;;;;;;;1.42;100.00;99426.75;6269968;28;20049;-70
2023/11/29 10:29:41;;;;;;;19.08;8.02;;;;;;;1.45;100.00;99423.19;6271492;28;20048;-69
2023/11/29 10:32:45;;;;;;;17.05;8.23;;;;;;;1.45;100.00;99418.88;6263798;28;20052;-69
2023/11/29 10:35:47;;;;;;;16.25;8.35;;;;;;;1.49;100.00;99428.19;6273171;28;20055;-70
2023/11/29 10:38:53;;;;;;;14.45;8.23;;;;;;;1.57;100.00;99435.66;6278586;28;20056;-70
2023/11/29 10:41:58;;;;;;;17.77;7.72;;;;;;;1.46;100.00;99432.66;6275795;28;20091;-75
2023/11/29 10:45:00;;;;;;;15.57;8.45;;;;;;;1.49;100.00;99435.09;6272475;28;20040;-70
2023/11/29 10:48:07;;;;;;;11.20;7.20;;;;;;;1.50;100.00;99435.06;6273635;28;20052;-70
2023/11/29 10:51:08;;;;;;;15.98;7.40;;;;;;;1.46;100.00;99438.66;6269433;28;20266;-70
2023/11/29 10:54:11;;;;;;;14.07;7.32;;;;;;;1.49;100.00;99442.88;6275681;28;20480;-69
2023/11/29 10:57:14;;;;;;;17.10;7.93;;;;;;;1.46;100.00;99445.59;6269796;28;20053;-70
2023/11/29 11:00:18;;;;;;;15.48;7.60;;;;;;;1.45;100.00;99430.94;6278284;28;20041;-70
2023/11/29 11:03:41;;;;;;;13.25;7.28;;;;;;;1.48;100.00;99431.69;6269489;28;20056;-70
2023/11/29 11:06:42;;;;;;;14.02;7.18;;;;;;;1.50;100.00;99431.63;6275148;28;20089;-69
2023/11/29 11:09:44;;;;;;;13.05;6.72;;;;;;;1.44;100.00;99422.34;6253071;28;20088;-69
2023/11/29 11:12:46;;;;;;;13.70;7.18;;;;;;;1.42;100.00;99433.66;6253273;28;20136;-69
2023/11/29 11:15:48;;;;;;;12.35;6.57;;;;;;;1.41;100.00;99437.13;6270389;28;20059;-69
2023/11/29 11:18:55;;;;;;;18.80;6.97;;;;;;;1.45;100.00;99434.41;6277142;28;20049;-71
2023/11/29 11:21:57;;;;;;;16.55;8.30;;;;;;;1.31;100.00;99439.22;6277733;28;20432;-70
2023/11/29 11:25:07;;;;;;;16.73;7.50;;;;;;;1.37;100.00;99448.53;6277394;28;20459;-70
2023/11/29 11:28:26;;;;;;;13.85;7.65;;;;;;;1.30;100.00;99447.03;6271649;28;20049;-71
2023/11/29 11:31:28;;;;;;;20.45;6.32;;;;;;;1.43;100.00;99453.47;6252367;28;20056;-70
2023/11/29 11:34:32;;;;;;;14.82;8.27;;;;;;;1.48;100.00;99459.31;6252502;28;20054;-69
2023/11/29 11:37:35;;;;;;;13.93;6.80;;;;;;;1.41;100.00;99458.72;6252500;28;20465;-69
2023/11/29 11:40:38;;;;;;;11.80;7.03;;;;;;;1.29;100.00;99473.84;6252503;28;20057;-72
2023/11/29 11:43:40;;;;;;;13.13;6.97;;;;;;;1.26;100.00;99467.84;6252421;28;20054;-70
2023/11/29 11:46:41;;;;;;;12.43;6.40;;;;;;;1.29;100.00;99469.50;6274046;28;20057;-71
2023/11/29 11:49:44;;;;;;;13.25;6.75;;;;;;;1.37;100.00;99471.81;6267523;28;20048;-71
2023/11/29 11:52:46;;;;;;;11.55;6.18;;;;;;;1.40;100.00;99482.03;6276674;28;20075;-71
2023/11/29 11:55:48;;;;;;;14.50;6.72;;;;;;;1.46;100.00;99493.03;6275592;28;20057;-70
2023/11/29 11:58:50;;;;;;;10.25;6.13;;;;;;;1.25;100.00;99496.38;6272726;28;20132;-71
2023/11/29 12:01:52;;;;;;;10.63;5.63;;;;;;;1.30;100.00;99499.66;6279072;28;20041;-71
2023/11/29 12:04:55;;;;;;;13.05;6.25;;;;;;;1.18;100.00;99506.13;6268122;28;20056;-70
2023/11/29 12:07:57;;;;;;;10.30;5.07;;;;;;;0.97;100.00;99520.63;6258990;28;20366;-71
2023/11/29 12:10:59;;;;;;;12.52;5.60;;;;;;;1.09;100.00;99519.38;6271778;28;20127;-71
2023/11/29 12:14:00;;;;;;;11.80;5.07;;;;;;;0.92;100.00;99511.34;6267902;28;20056;-69
2023/11/29 12:17:02;;;;;;;13.35;5.70;;;;;;;0.76;100.00;99518.75;6276452;28;20052;-71
2023/11/29 12:20:06;;;;;;;9.60;5.03;;;;;;;0.77;100.00;99525.59;6276281;28;20045;-70
2023/11/29 12:23:08;;;;;;;9.18;5.18;;;;;;;0.89;100.00;99524.34;6276267;28;20053;-71
2023/11/29 12:26:13;;;;;;;13.95;5.07;;;;;;;0.75;100.00;99528.25;6281466;28;20045;-71
2023/11/29 12:29:15;;;;;;;10.73;5.40;;;;;;;0.83;100.00;99548.69;6267541;28;20045;-69
2023/11/29 12:32:17;;;;;;;9.55;4.57;;;;;;;0.89;100.00;99553.66;6276064;28;20052;-69
2023/11/29 12:35:20;;;;;;;10.50;5.40;;;;;;;0.73;100.00;99549.88;6274136;28;20061;-68
2023/11/29 12:38:21;;;;;;;9.85;5.15;;;;;;;0.73;100.00;99562.81;6268407;28;20050;-69
2023/11/29 12:41:22;;;;;;;15.02;5.35;;;;;;;0.91;100.00;99569.09;6274795;28;20041;-70
2023/11/29 12:44:24;;;;;;;9.82;5.95;;;;;;;0.83;100.00;99579.72;6274410;28;20045;-69
2023/11/29 12:47:28;;;;;;;15.07;6.97;;;;;;;0.72;100.00;99584.38;6274953;28;20171;-70
2023/11/29 12:50:32;;;;;;;18.02;7.53;;;;;;;0.48;100.00;99584.25;6262788;28;20352;-70
2023/11/29 12:53:33;;;;;;;16.38;7.72;;;;;;;0.32;100.00;99595.09;6263005;28;20449;-69
2023/11/29 12:56:35;;;;;;;9.45;4.72;;;;;;;0.31;100.00;99599.41;6264237;28;20045;-70
2023/11/29 12:59:36;;;;;;;7.28;4.05;;;;;;;0.37;100.00;99611.34;6263744;28;20056;-71
2023/11/29 13:02:38;;;;;;;12.18;5.03;;;;;;;0.30;100.00;99615.81;6263676;28;20063;-72
2023/11/29 13:05:40;;;;;;;8.63;4.85;;;;;;;0.19;100.00;99629.06;6261741;28;20042;-69
2023/11/29 13:08:42;;;;;;;9.60;4.78;;;;;;;0.37;100.00;99622.50;6258214;28;20064;-69
2023/11/29 13:11:43;;;;;;;12.00;4.32;;;;;;;0.41;100.00;99624.13;6250417;28;20366;-68
2023/11/29 13:14:45;;;;;;;9.20;4.18;;;;;;;0.33;100.00;99630.41;6250303;28;20045;-69
2023/11/29 13:17:46;;;;;;;9.70;5.18;;;;;;;0.34;100.00;99632.94;6270780;28;20056;-69
2023/11/29 13:20:49;;;;;;;10.02;4.72;;;;;;;0.33;100.00;99636.41;6275081;28;20437;-69
2023/11/29 13:23:52;;;;;;;9.80;5.50;;;;;;;0.40;100.00;99644.81;6275218;28;20056;-67
2023/11/29 13:26:53;;;;;;;9.95;4.95;;;;;;;0.45;100.00;99655.84;6275091;28;20102;-68
2023/11/29 13:29:55;;;;;;;4.75;3.17;;;;;;;0.46;100.00;99662.75;6274953;28;20049;-68
2023/11/29 13:32:56;;;;;;;10.43;4.40;;;;;;;0.42;100.00;99658.56;6274999;28;20103;-68
2023/11/29 13:35:59;;;;;;;6.80;3.72;;;;;;;0.46;100.00;99663.59;6274750;28;20053;-68
2023/11/29 13:39:00;;;;;;;7.50;3.90;;;;;;;0.35;100.00;99667.38;6275047;28;20060;-68
2023/11/29 13:42:02;;;;;;;6.82;3.85;;;;;;;0.41;100.00;99680.97;6275093;28;20437;-68
2023/11/29 13:45:04;;;;;;;13.55;4.05;;;;;;;0.53;100.00;99692.66;6279842;28;20053;-70
2023/11/29 13:48:06;;;;;;;6.53;3.50;;;;;;;0.43;100.00;99691.25;6274268;28;20045;-67
2023/11/29 13:51:09;;;;;;;19.63;6.05;;;;;;;0.60;100.00;99691.59;6267942;28;20128;-69
2023/11/29 13:54:11;;;;;;;6.38;3.13;;;;;;;0.49;100.00;99710.00;6267961;28;20053;-68
2023/11/29 13:57:12;;;;;;;5.13;3.30;;;;;;;0.57;100.00;99701.19;6260431;28;20057;-69
2023/11/29 14:00:14;;;;;;;6.70;3.42;;;;;;;0.46;100.00;99715.28;6271865;28;20045;-68
2023/11/29 14:03:16;;;;;;;6.70;2.67;;;;;;;0.43;100.00;99719.69;6279453;28;20102;-69
2023/11/29 14:06:19;;;;;;;27.10;7.30;;;;;;;0.37;100.00;99731.03;6279513;28;20063;-70
2023/11/29 14:09:21;;;;;;;13.07;3.70;;;;;;;0.37;100.00;99728.47;6279396;28;20053;-69